Accueil
Images satellite Prévisions 15 joursClimatMétéo marine Cyclones Foudre AéroportsFAQ Actualités A propos
Météo : Europe Afrique Amérique du Nord Amérique du Sud Asie Australie-Océanie Autres
Langues Contact

Florennes, Belgique

Base aérienne

latitude: 50-14N, longitude: 004-39E, altitude: 279 m


METAR: EBFS 021355Z 31004KT 9999 FEW024 BKN050 19/14 Q1028 BLU BLU
TAF: EBFS 021301Z 0213/0222 VRB02KT 9999 FEW020 SCT060 BECMG 0218/0220 FEW012 SCT020

Heure: 16:26 (14:26 UTC)

Observation

Le bulletin a été fait il y a 31 minutes, à 13:55 UTC  
Vent 04 kt de nord-ouest
Température 19°C
Humidité 73%
Pression 1028 hPa
Visibilité 10 km ou plus
Quelques nuages à une hauteur de 2400 ft
Nuages fragmentés à une hauteur de 5000 ft

Changer d'unités

Prévision

Le bulletin a été fait il y a 01 heure et 25 minutes, à 13:01 UTC  
Prévision valable du 02 à 13 UTC au 02 à 22 UTC
Vent 02 kt de direction variable
Visibilité 10 km ou plus
Quelques nuages à une hauteur de 2000 ft
Nuages épars à une hauteur de 6000 ft
Evoluant progressivement
du 02 à 18 UTC au 02 à 20 UTC
Quelques nuages à une hauteur de 1200 ft
Nuages épars à une hauteur de 2000 ft
Les informations qui figurent sur ce site font l'objet d'une clause de non-responsabilité
Météo : Europe Afrique Amérique du Nord Amérique du Sud Asie Australie-Océanie Autres
Images satellite Prévisions 15 joursClimatMétéo marine Cyclones Foudre AéroportsFAQ Langues Contact Actualités A propos